createdAt,value
2018-03-26T00:00:17.913Z,51.20
2018-03-26T00:01:17.897Z,50.30
2018-03-26T00:02:17.888Z,50.30
2018-03-26T00:03:17.886Z,52.50
2018-03-26T00:04:17.876Z,51.60
2018-03-26T00:05:17.869Z,55.00
2018-03-26T00:06:17.874Z,53.60
2018-03-26T00:07:17.857Z,54.40
2018-03-26T00:08:17.853Z,57.60
2018-03-26T00:09:18.056Z,56.60
2018-03-26T00:10:17.839Z,55.50
2018-03-26T00:11:17.845Z,57.70
2018-03-26T00:12:17.831Z,57.50
2018-03-26T00:13:17.823Z,58.20
2018-03-26T00:14:17.825Z,57.00
2018-03-26T00:15:17.826Z,55.50
2018-03-26T00:16:17.832Z,60.00
2018-03-26T00:17:17.796Z,58.30
2018-03-26T00:18:17.801Z,61.20
2018-03-26T00:19:17.790Z,59.20
2018-03-26T00:20:17.778Z,58.70
2018-03-26T00:21:17.772Z,63.40
2018-03-26T00:22:17.766Z,60.30
2018-03-26T00:23:17.760Z,61.20
2018-03-26T00:24:17.757Z,60.20
2018-03-26T00:25:17.759Z,60.00
2018-03-26T00:26:17.759Z,61.20
2018-03-26T00:27:17.770Z,60.80
2018-03-26T00:28:17.730Z,61.10
2018-03-26T00:29:17.725Z,59.20
2018-03-26T00:30:17.748Z,62.90
2018-03-26T00:31:17.710Z,59.60
2018-03-26T00:32:17.708Z,60.50
2018-03-26T00:33:17.715Z,61.50
2018-03-26T00:34:17.704Z,60.70
2018-03-26T00:35:17.891Z,60.80
2018-03-26T00:36:17.690Z,60.40
2018-03-26T00:37:17.675Z,61.20
2018-03-26T00:38:17.671Z,63.00
2018-03-26T00:39:17.676Z,61.00
2018-03-26T00:40:17.656Z,62.60
2018-03-26T00:41:17.648Z,61.70
2018-03-26T00:42:17.850Z,61.80
2018-03-26T00:43:17.647Z,63.10
2018-03-26T00:44:17.633Z,62.00
2018-03-26T00:45:17.636Z,64.00
2018-03-26T00:46:17.619Z,63.70
2018-03-26T00:47:17.611Z,61.70
2018-03-26T00:48:17.615Z,61.30
2018-03-26T00:49:17.599Z,61.20
2018-03-26T00:50:17.596Z,68.10
2018-03-26T00:51:17.589Z,64.60
2018-03-26T00:52:17.580Z,64.70
2018-03-26T00:53:17.578Z,68.80
2018-03-26T00:54:17.569Z,69.30
2018-03-26T00:55:17.575Z,65.40
2018-03-26T00:56:17.555Z,67.60
2018-03-26T00:57:17.556Z,67.90
2018-03-26T00:58:17.544Z,66.60
2018-03-26T00:59:17.541Z,67.70
2018-03-26T01:00:17.529Z,67.90
2018-03-26T01:01:17.541Z,68.90
2018-03-26T01:02:17.526Z,68.80
2018-03-26T01:03:17.513Z,68.80
2018-03-26T01:04:17.520Z,68.60
2018-03-26T01:05:17.503Z,69.40
2018-03-26T01:06:17.512Z,71.50
2018-03-26T01:07:17.488Z,71.20
2018-03-26T01:08:17.494Z,67.60
2018-03-26T01:09:17.476Z,70.50
2018-03-26T01:10:17.471Z,67.90
2018-03-26T01:11:17.474Z,71.30
2018-03-26T01:12:17.475Z,71.40
2018-03-26T01:13:17.465Z,69.10
2018-03-26T01:14:17.446Z,70.60
2018-03-26T01:15:17.441Z,74.00
2018-03-26T01:16:17.430Z,73.70
2018-03-26T01:17:17.434Z,70.60
2018-03-26T01:18:17.422Z,73.00
2018-03-26T01:19:17.415Z,74.60
2018-03-26T01:20:17.407Z,74.30
2018-03-26T01:21:17.418Z,75.20
2018-03-26T01:22:17.407Z,73.40
2018-03-26T01:23:17.404Z,74.90
2018-03-26T01:24:17.395Z,76.60
2018-03-26T01:25:17.389Z,75.30
2018-03-26T01:26:17.389Z,75.40
2018-03-26T01:27:17.382Z,77.20
2018-03-26T01:28:17.358Z,81.40
2018-03-26T01:29:17.399Z,81.10
2018-03-26T01:30:17.359Z,83.00
2018-03-26T01:31:17.352Z,84.90
2018-03-26T01:32:17.344Z,83.60
2018-03-26T01:33:17.326Z,77.60
2018-03-26T01:34:17.336Z,85.60
2018-03-26T01:35:17.325Z,83.30
2018-03-26T01:36:17.320Z,81.30
2018-03-26T01:37:17.330Z,82.50
2018-03-26T01:38:17.310Z,80.60
2018-03-26T01:39:17.290Z,82.70
2018-03-26T01:40:17.295Z,85.20
2018-03-26T01:41:17.291Z,84.20
2018-03-26T01:42:17.276Z,90.60
2018-03-26T01:43:17.526Z,92.30
2018-03-26T01:44:17.275Z,92.40
2018-03-26T01:45:17.466Z,101.70
2018-03-26T01:46:17.252Z,96.40
2018-03-26T01:47:17.241Z,99.50
2018-03-26T01:48:17.235Z,102.00
2018-03-26T01:49:17.449Z,102.50
2018-03-26T01:50:17.238Z,99.90
2018-03-26T01:51:17.222Z,101.30
2018-03-26T01:52:17.238Z,102.60
2018-03-26T01:53:17.218Z,111.10
2018-03-26T01:54:17.203Z,105.00
2018-03-26T01:55:17.190Z,110.00
2018-03-26T01:56:17.388Z,108.40
2018-03-26T01:57:17.226Z,110.30
2018-03-26T01:58:17.175Z,106.50
2018-03-26T01:59:17.170Z,112.10
2018-03-26T02:00:17.189Z,113.80
2018-03-26T02:01:17.157Z,112.80
2018-03-26T02:02:17.147Z,114.40
2018-03-26T02:03:17.138Z,111.60
2018-03-26T02:04:17.151Z,117.60
2018-03-26T02:05:17.333Z,119.90
2018-03-26T02:06:17.134Z,115.20
2018-03-26T02:07:17.131Z,116.40
2018-03-26T02:08:17.356Z,116.00
2018-03-26T02:09:17.334Z,119.10
2018-03-26T02:10:17.093Z,120.90
2018-03-26T02:11:17.086Z,119.50
2018-03-26T02:12:17.100Z,119.70
2018-03-26T02:13:17.104Z,124.40
2018-03-26T02:14:17.067Z,119.60
2018-03-26T02:15:17.062Z,124.00
2018-03-26T02:16:17.261Z,126.70
2018-03-26T02:17:17.251Z,126.50
2018-03-26T02:18:17.256Z,120.00
2018-03-26T02:19:17.238Z,124.30
2018-03-26T02:20:17.029Z,118.90
2018-03-26T02:21:17.238Z,123.90
2018-03-26T02:22:17.013Z,123.60
2018-03-26T02:23:17.021Z,125.90
2018-03-26T02:24:17.003Z,122.30
2018-03-26T02:25:17.005Z,121.10
2018-03-26T02:26:17.042Z,128.00
2018-03-26T02:27:16.983Z,126.30
2018-03-26T02:28:16.990Z,124.30
2018-03-26T02:29:16.980Z,121.30
2018-03-26T02:30:17.165Z,126.40
2018-03-26T02:31:17.159Z,124.10
2018-03-26T02:32:16.961Z,129.70
2018-03-26T02:33:16.954Z,122.60
2018-03-26T02:34:16.958Z,127.60
2018-03-26T02:35:17.142Z,121.00
2018-03-26T02:36:17.131Z,129.10
2018-03-26T02:37:17.128Z,125.70
2018-03-26T02:38:17.124Z,126.30
2018-03-26T02:39:17.105Z,125.00
2018-03-26T02:40:16.893Z,129.90
2018-03-26T02:41:17.094Z,125.70
2018-03-26T02:42:17.095Z,129.60
2018-03-26T02:43:16.873Z,125.30
2018-03-26T02:44:16.889Z,121.50
2018-03-26T02:45:17.063Z,123.70
2018-03-26T02:46:16.869Z,125.20
2018-03-26T02:47:16.847Z,117.10
2018-03-26T02:48:16.845Z,120.20
2018-03-26T02:49:17.036Z,123.50
2018-03-26T02:50:16.833Z,117.20
2018-03-26T02:51:16.833Z,122.30
2018-03-26T02:52:17.019Z,119.20
2018-03-26T02:53:16.806Z,119.20
2018-03-26T02:54:17.002Z,116.70
2018-03-26T02:55:16.803Z,121.80
2018-03-26T02:56:16.783Z,118.00
2018-03-26T02:57:16.984Z,120.60
2018-03-26T02:58:16.771Z,111.90
2018-03-26T02:59:16.786Z,116.40
2018-03-26T03:00:16.756Z,116.80
2018-03-26T03:01:16.964Z,119.80
2018-03-26T03:02:16.971Z,116.00
2018-03-26T03:03:16.735Z,119.80
2018-03-26T03:04:16.943Z,112.90
2018-03-26T03:05:16.930Z,112.60
2018-03-26T03:06:16.716Z,112.30
2018-03-26T03:07:16.713Z,112.40
2018-03-26T03:08:16.701Z,112.40
2018-03-26T03:09:16.713Z,109.60
2018-03-26T03:10:16.687Z,111.00
2018-03-26T03:11:16.693Z,114.70
2018-03-26T03:12:16.674Z,112.40
2018-03-26T03:13:16.670Z,107.30
2018-03-26T03:14:16.664Z,110.50
2018-03-26T03:15:16.863Z,109.70
2018-03-26T03:16:16.647Z,110.70
2018-03-26T03:17:16.853Z,103.80
2018-03-26T03:18:16.632Z,107.60
2018-03-26T03:19:16.848Z,105.30
2018-03-26T03:20:16.617Z,109.20
2018-03-26T03:21:16.625Z,108.80
2018-03-26T03:22:16.810Z,106.40
2018-03-26T03:23:16.600Z,109.10
2018-03-26T03:24:16.599Z,110.30
2018-03-26T03:25:16.789Z,102.20
2018-03-26T03:26:16.580Z,107.60
2018-03-26T03:27:16.633Z,105.10
2018-03-26T03:28:16.573Z,102.20
2018-03-26T03:29:16.561Z,103.10
2018-03-26T03:30:16.562Z,100.30
2018-03-26T03:31:16.753Z,102.90
2018-03-26T03:32:16.738Z,99.90
2018-03-26T03:33:16.545Z,99.40
2018-03-26T03:34:16.543Z,101.90
2018-03-26T03:35:16.516Z,100.70
2018-03-26T03:36:16.713Z,101.80
2018-03-26T03:37:16.500Z,93.20
2018-03-26T03:38:16.698Z,101.60
2018-03-26T03:39:16.689Z,99.70
2018-03-26T03:40:16.481Z,98.10
2018-03-26T03:41:16.469Z,100.00
2018-03-26T03:42:16.475Z,95.90
2018-03-26T03:43:16.454Z,100.40
2018-03-26T03:44:16.450Z,100.60
2018-03-26T03:45:16.456Z,95.10
2018-03-26T03:46:16.438Z,96.90
2018-03-26T03:47:16.642Z,92.50
2018-03-26T03:48:16.622Z,94.80
2018-03-26T03:49:16.412Z,94.00
2018-03-26T03:50:16.609Z,94.90
2018-03-26T03:51:16.405Z,92.90
2018-03-26T03:52:16.598Z,94.50
2018-03-26T03:53:16.398Z,90.60
2018-03-26T03:54:16.386Z,91.50
2018-03-26T03:55:16.373Z,93.50
2018-03-26T03:56:16.377Z,91.10
2018-03-26T03:57:16.358Z,90.40
2018-03-26T03:58:16.380Z,92.10
2018-03-26T03:59:16.352Z,87.50
2018-03-26T04:00:16.555Z,90.90
2018-03-26T04:01:16.339Z,91.20
2018-03-26T04:02:16.524Z,86.30
2018-03-26T04:03:16.314Z,89.70
2018-03-26T04:04:16.522Z,86.70
2018-03-26T04:05:16.303Z,88.00
2018-03-26T04:06:16.293Z,89.10
2018-03-26T04:07:16.288Z,90.00
2018-03-26T04:08:16.276Z,90.60
2018-03-26T04:09:16.271Z,87.90
2018-03-26T04:10:16.275Z,85.90
2018-03-26T04:11:16.256Z,86.00
2018-03-26T04:12:16.249Z,91.20
2018-03-26T04:13:16.279Z,83.40
2018-03-26T04:14:16.261Z,86.10
2018-03-26T04:15:16.239Z,86.00
2018-03-26T04:16:16.245Z,88.30
2018-03-26T04:17:16.433Z,84.80
2018-03-26T04:18:16.438Z,90.10
2018-03-26T04:19:16.198Z,88.00
2018-03-26T04:20:16.194Z,85.80
2018-03-26T04:21:16.186Z,92.70
2018-03-26T04:22:16.189Z,89.80
2018-03-26T04:23:16.174Z,88.20
2018-03-26T04:24:16.165Z,82.70
2018-03-26T04:25:16.171Z,88.40
2018-03-26T04:26:16.173Z,91.80
2018-03-26T04:27:16.353Z,89.60
2018-03-26T04:28:16.143Z,91.10
2018-03-26T04:29:16.129Z,89.60
2018-03-26T04:30:16.121Z,88.50
2018-03-26T04:31:16.114Z,87.60
2018-03-26T04:32:16.110Z,90.50
2018-03-26T04:33:16.144Z,89.30
2018-03-26T04:34:16.096Z,83.60
2018-03-26T04:35:16.288Z,88.40
2018-03-26T04:36:16.082Z,92.30
2018-03-26T04:37:16.069Z,88.70
2018-03-26T04:38:16.272Z,92.10
2018-03-26T04:39:16.282Z,89.70
2018-03-26T04:40:16.049Z,88.80
2018-03-26T04:41:16.046Z,92.40
2018-03-26T04:42:16.241Z,85.80
2018-03-26T04:43:16.025Z,89.60
2018-03-26T04:44:16.031Z,87.80
2018-03-26T04:45:16.027Z,90.40
2018-03-26T04:46:16.006Z,88.90
2018-03-26T04:47:16.007Z,90.50
2018-03-26T04:48:15.992Z,90.40
2018-03-26T04:49:16.198Z,92.00
2018-03-26T04:50:15.976Z,89.20
2018-03-26T04:51:15.971Z,92.10
2018-03-26T04:52:15.964Z,89.70
2018-03-26T04:53:15.954Z,88.60
2018-03-26T04:54:16.152Z,85.50
2018-03-26T04:55:15.950Z,92.90
2018-03-26T04:56:15.935Z,94.00
2018-03-26T04:57:15.936Z,90.60
2018-03-26T04:58:15.934Z,92.20
2018-03-26T04:59:15.921Z,89.10
2018-03-26T05:00:15.900Z,89.70
2018-03-26T05:01:15.899Z,87.60
2018-03-26T05:02:16.154Z,89.60
2018-03-26T05:03:16.124Z,89.00
2018-03-26T05:04:15.898Z,90.40
2018-03-26T05:05:15.892Z,88.50
2018-03-26T05:06:16.114Z,94.30
2018-03-26T05:07:15.869Z,89.60
2018-03-26T05:08:15.857Z,89.00
2018-03-26T05:09:15.840Z,93.30
2018-03-26T05:10:15.840Z,96.00
2018-03-26T05:11:16.027Z,88.90
2018-03-26T05:12:16.031Z,97.50
2018-03-26T05:13:15.810Z,91.70
2018-03-26T05:14:15.804Z,96.50
2018-03-26T05:15:15.808Z,97.70
2018-03-26T05:16:15.788Z,95.00
2018-03-26T05:17:15.792Z,99.20
2018-03-26T05:18:15.772Z,93.60
2018-03-26T05:19:15.765Z,96.40
2018-03-26T05:20:15.757Z,99.10
2018-03-26T05:21:15.752Z,97.20
2018-03-26T05:22:15.744Z,99.50
2018-03-26T05:23:15.734Z,87.70
2018-03-26T05:24:15.934Z,89.40
2018-03-26T05:25:15.750Z,77.90
2018-03-26T05:26:15.921Z,66.80
2018-03-26T05:27:15.717Z,62.80
2018-03-26T05:28:15.700Z,58.00
2018-03-26T05:29:15.696Z,53.30
2018-03-26T05:30:15.686Z,56.30
2018-03-26T05:31:15.692Z,64.20
2018-03-26T05:32:15.670Z,61.60
2018-03-26T05:33:15.665Z,58.40
2018-03-26T05:34:15.656Z,60.70
2018-03-26T05:35:15.651Z,58.80
2018-03-26T05:36:15.845Z,62.60
2018-03-26T05:37:15.638Z,64.30
2018-03-26T05:38:15.643Z,62.40
2018-03-26T05:39:15.623Z,61.30
2018-03-26T05:40:15.614Z,59.80
2018-03-26T05:41:15.610Z,65.40
2018-03-26T05:42:15.602Z,67.50
2018-03-26T05:43:15.593Z,72.20
2018-03-26T05:44:15.585Z,76.70
2018-03-26T05:45:15.592Z,73.90
2018-03-26T05:46:15.583Z,81.40
2018-03-26T05:47:15.570Z,83.00
2018-03-26T05:48:15.556Z,83.20
2018-03-26T05:49:15.554Z,92.20
2018-03-26T05:50:15.558Z,96.50
2018-03-26T05:51:15.551Z,104.60
2018-03-26T05:52:15.568Z,111.90
2018-03-26T05:53:15.535Z,116.70
2018-03-26T05:54:15.516Z,111.30
2018-03-26T05:55:15.531Z,112.50
2018-03-26T05:56:15.716Z,120.80
2018-03-26T05:57:15.520Z,115.30
2018-03-26T05:58:15.701Z,113.20
2018-03-26T05:59:15.491Z,110.40
2018-03-26T06:00:15.474Z,112.50
2018-03-26T06:01:15.470Z,108.10
2018-03-26T06:02:15.462Z,115.80
2018-03-26T06:03:15.451Z,110.40
2018-03-26T06:04:15.449Z,112.20
2018-03-26T06:05:15.442Z,117.50
2018-03-26T06:06:15.432Z,117.90
2018-03-26T06:07:15.427Z,117.70
2018-03-26T06:08:15.637Z,122.90
2018-03-26T06:09:15.412Z,117.00
2018-03-26T06:10:15.419Z,117.60
2018-03-26T06:11:15.613Z,114.90
2018-03-26T06:12:15.399Z,114.70
2018-03-26T06:13:15.399Z,118.00
2018-03-26T06:14:15.382Z,115.90
2018-03-26T06:15:15.372Z,114.70
2018-03-26T06:16:15.367Z,118.70
2018-03-26T06:17:15.565Z,116.40
2018-03-26T06:18:15.394Z,117.20
2018-03-26T06:19:15.344Z,114.80
2018-03-26T06:20:15.364Z,111.70
2018-03-26T06:21:15.330Z,116.20
2018-03-26T06:22:15.324Z,114.40
2018-03-26T06:23:15.321Z,112.80
2018-03-26T06:24:15.312Z,120.30
2018-03-26T06:25:15.315Z,122.60
2018-03-26T06:26:15.296Z,116.30
2018-03-26T06:27:15.493Z,120.80
2018-03-26T06:28:15.287Z,119.30
2018-03-26T06:29:15.285Z,124.40
2018-03-26T06:30:15.283Z,122.70
2018-03-26T06:31:15.263Z,123.80
2018-03-26T06:32:15.266Z,119.90
2018-03-26T06:33:15.258Z,130.80
2018-03-26T06:34:15.242Z,125.10
2018-03-26T06:35:15.236Z,124.50
2018-03-26T06:36:15.232Z,123.60
2018-03-26T06:37:15.433Z,126.20
2018-03-26T06:38:15.213Z,123.60
2018-03-26T06:39:15.206Z,127.10
2018-03-26T06:40:15.200Z,123.90
2018-03-26T06:41:15.205Z,121.30
2018-03-26T06:42:15.183Z,122.20
2018-03-26T06:43:15.206Z,128.80
2018-03-26T06:44:15.184Z,124.40
2018-03-26T06:45:15.181Z,124.10
2018-03-26T06:46:15.156Z,129.60
2018-03-26T06:47:15.148Z,128.60
2018-03-26T06:48:15.143Z,126.00
2018-03-26T06:49:15.146Z,127.80
2018-03-26T06:50:15.127Z,125.00
2018-03-26T06:51:15.118Z,129.00
2018-03-26T06:52:15.114Z,122.20
2018-03-26T06:53:15.122Z,128.80
2018-03-26T06:54:15.110Z,125.90
2018-03-26T06:55:15.093Z,123.20
2018-03-26T06:56:15.101Z,121.50
2018-03-26T06:57:15.089Z,125.10
2018-03-26T06:58:15.073Z,127.30
2018-03-26T06:59:15.075Z,123.80
2018-03-26T07:00:15.059Z,124.20
2018-03-26T07:01:15.266Z,116.70
2018-03-26T07:02:15.072Z,125.10
2018-03-26T07:03:15.052Z,128.20
2018-03-26T07:04:15.248Z,125.80
2018-03-26T07:05:15.027Z,123.40
2018-03-26T07:06:15.238Z,121.40
2018-03-26T07:07:15.037Z,121.30
2018-03-26T07:08:15.028Z,121.70
2018-03-26T07:09:14.997Z,122.70
2018-03-26T07:10:14.988Z,122.10
2018-03-26T07:11:15.000Z,121.30
2018-03-26T07:12:14.993Z,120.40
2018-03-26T07:13:14.984Z,124.60
2018-03-26T07:14:14.977Z,118.70
2018-03-26T07:15:14.956Z,120.00
2018-03-26T07:16:14.952Z,115.80
2018-03-26T07:17:14.942Z,124.10
2018-03-26T07:18:14.936Z,119.90
2018-03-26T07:19:14.926Z,114.70
2018-03-26T07:20:14.921Z,114.60
2018-03-26T07:21:14.926Z,120.70
2018-03-26T07:22:14.922Z,114.60
2018-03-26T07:23:14.901Z,115.20
2018-03-26T07:24:14.914Z,113.80
2018-03-26T07:25:14.894Z,112.60
2018-03-26T07:26:14.882Z,112.60
2018-03-26T07:27:14.876Z,110.60
2018-03-26T07:28:14.868Z,118.40
2018-03-26T07:29:14.872Z,112.30
2018-03-26T07:30:15.059Z,109.90
2018-03-26T07:31:14.849Z,114.00
2018-03-26T07:32:14.853Z,112.70
2018-03-26T07:33:14.848Z,113.50
2018-03-26T07:34:15.049Z,114.70
2018-03-26T07:35:15.027Z,116.70
2018-03-26T07:36:15.020Z,118.50
2018-03-26T07:37:14.836Z,117.90
2018-03-26T07:38:14.805Z,109.30
2018-03-26T07:39:15.002Z,118.50
2018-03-26T07:40:14.795Z,116.90
2018-03-26T07:41:14.812Z,115.80
2018-03-26T07:42:14.788Z,113.10
2018-03-26T07:43:14.777Z,114.30
2018-03-26T07:44:14.778Z,119.50
2018-03-26T07:45:14.761Z,115.00
2018-03-26T07:46:14.755Z,119.40
2018-03-26T07:47:14.967Z,114.10
2018-03-26T07:48:14.745Z,118.70
2018-03-26T07:49:14.749Z,114.80
2018-03-26T07:50:14.740Z,113.50
2018-03-26T07:51:14.739Z,105.70
2018-03-26T07:52:14.715Z,106.90
2018-03-26T07:53:14.711Z,93.50
2018-03-26T07:54:14.710Z,106.90
2018-03-26T07:55:14.699Z,106.30
2018-03-26T07:56:14.692Z,97.30
2018-03-26T07:57:14.689Z,97.40
2018-03-26T07:58:14.684Z,97.30
2018-03-26T07:59:14.880Z,92.60
2018-03-26T08:00:14.883Z,96.10
2018-03-26T08:01:14.666Z,94.20
2018-03-26T08:02:14.888Z,85.70
2018-03-26T08:03:14.651Z,88.80
2018-03-26T08:04:14.849Z,86.60
2018-03-26T08:05:14.651Z,88.10
2018-03-26T08:06:14.645Z,85.40
2018-03-26T08:07:14.643Z,86.00
2018-03-26T08:08:14.829Z,86.50
2018-03-26T08:09:14.626Z,88.60
2018-03-26T08:10:14.648Z,84.10
2018-03-26T08:11:14.824Z,81.90
2018-03-26T08:12:14.604Z,82.50
2018-03-26T08:13:14.614Z,80.70
2018-03-26T08:14:14.801Z,82.10
2018-03-26T08:15:14.590Z,83.60
2018-03-26T08:16:14.606Z,81.80
2018-03-26T08:17:14.693Z,80.60
2018-03-26T08:18:14.590Z,75.80
2018-03-26T08:19:14.776Z,78.10
2018-03-26T08:20:14.569Z,77.60
2018-03-26T08:21:14.574Z,80.00
2018-03-26T08:22:14.571Z,77.30
2018-03-26T08:23:14.569Z,74.70
2018-03-26T08:24:14.566Z,75.60
2018-03-26T08:25:14.754Z,74.20
2018-03-26T08:26:14.750Z,73.70
2018-03-26T08:27:14.543Z,72.30
2018-03-26T08:28:14.553Z,72.60
2018-03-26T08:29:14.537Z,72.80
2018-03-26T08:30:14.741Z,64.70
2018-03-26T08:31:14.538Z,67.60
2018-03-26T08:32:14.538Z,65.80
2018-03-26T08:33:14.729Z,63.60
2018-03-26T08:34:14.522Z,62.70
2018-03-26T08:35:14.734Z,61.80
2018-03-26T08:36:14.526Z,61.20
2018-03-26T08:37:14.526Z,59.20
2018-03-26T08:38:14.720Z,64.60
2018-03-26T08:39:14.509Z,51.30
2018-03-26T08:40:14.507Z,43.80
2018-03-26T08:41:14.713Z,44.90
2018-03-26T08:42:14.531Z,45.90
2018-03-26T08:43:14.501Z,44.90
2018-03-26T08:44:14.498Z,46.80
2018-03-26T08:45:14.494Z,49.60
2018-03-26T08:46:14.490Z,51.10
2018-03-26T08:47:14.507Z,47.30
2018-03-26T08:48:14.485Z,49.10
2018-03-26T08:49:14.482Z,50.40
2018-03-26T08:50:14.706Z,48.70
2018-03-26T08:51:14.474Z,49.60
2018-03-26T08:52:14.673Z,46.30
2018-03-26T08:53:14.465Z,49.60
2018-03-26T08:54:14.476Z,48.80
2018-03-26T08:55:14.457Z,50.00
2018-03-26T08:56:14.493Z,48.00
2018-03-26T08:57:14.655Z,45.80
2018-03-26T08:58:14.651Z,44.30
2018-03-26T08:59:14.661Z,41.90
2018-03-26T09:00:14.440Z,47.50
2018-03-26T09:01:14.434Z,45.30
2018-03-26T09:02:14.634Z,44.00
2018-03-26T09:03:14.424Z,45.90
2018-03-26T09:04:14.420Z,43.00
2018-03-26T09:05:14.620Z,43.80
2018-03-26T09:06:14.411Z,41.80
2018-03-26T09:07:14.609Z,44.00
2018-03-26T09:08:14.411Z,47.00
2018-03-26T09:09:14.398Z,44.30
2018-03-26T09:10:14.392Z,41.70
2018-03-26T09:11:14.593Z,44.90
2018-03-26T09:12:14.598Z,43.00
2018-03-26T09:13:14.389Z,43.10
2018-03-26T09:14:14.383Z,43.20
2018-03-26T09:15:14.367Z,40.00
2018-03-26T09:16:14.365Z,43.50
2018-03-26T09:17:14.372Z,44.10
2018-03-26T09:18:14.351Z,44.20
2018-03-26T09:19:14.549Z,39.60
2018-03-26T09:20:14.339Z,34.80
2018-03-26T09:21:14.539Z,35.90
2018-03-26T09:22:14.331Z,40.80
2018-03-26T09:23:14.534Z,45.50
2018-03-26T09:24:14.540Z,37.00
2018-03-26T09:25:14.531Z,35.60
2018-03-26T09:26:14.518Z,36.60
2018-03-26T09:27:14.518Z,39.20
2018-03-26T09:28:14.304Z,37.00
2018-03-26T09:29:14.306Z,25.00
2018-03-26T09:30:14.287Z,29.80
2018-03-26T09:31:14.484Z,32.70
2018-03-26T09:32:14.299Z,37.00
2018-03-26T09:33:14.477Z,35.60
2018-03-26T09:34:14.272Z,37.20
2018-03-26T09:35:14.270Z,33.60
2018-03-26T09:36:14.253Z,28.70
2018-03-26T09:37:14.455Z,35.50
2018-03-26T09:38:14.448Z,35.40
2018-03-26T09:39:14.236Z,37.50
2018-03-26T09:40:14.438Z,38.50
2018-03-26T09:41:14.430Z,41.80
2018-03-26T09:42:14.223Z,43.70
2018-03-26T09:43:14.231Z,38.70
2018-03-26T09:44:14.425Z,33.80
2018-03-26T09:45:14.206Z,38.80
2018-03-26T09:46:14.226Z,38.10
2018-03-26T09:47:14.397Z,38.90
2018-03-26T09:48:14.190Z,32.80
2018-03-26T09:49:14.188Z,34.20
2018-03-26T09:50:14.383Z,35.60
2018-03-26T09:51:14.184Z,35.30
2018-03-26T09:52:14.182Z,28.60
2018-03-26T09:53:14.161Z,21.60
2018-03-26T09:54:14.371Z,22.60
2018-03-26T09:55:14.155Z,22.50
2018-03-26T09:56:14.349Z,18.80
2018-03-26T09:57:14.139Z,16.50
2018-03-26T09:58:14.158Z,20.20
2018-03-26T09:59:14.137Z,22.70
2018-03-26T10:00:14.123Z,24.50
2018-03-26T10:01:14.116Z,26.30
2018-03-26T10:02:14.117Z,25.10
2018-03-26T10:03:14.110Z,21.60
2018-03-26T10:04:14.177Z,21.70
2018-03-26T10:05:14.096Z,20.80
2018-03-26T10:06:14.105Z,20.20
2018-03-26T10:07:14.100Z,23.40
2018-03-26T10:08:14.106Z,20.90
2018-03-26T10:09:14.085Z,22.20
2018-03-26T10:10:14.072Z,22.20
2018-03-26T10:11:14.081Z,21.70
2018-03-26T10:12:14.060Z,22.00
2018-03-26T10:13:14.256Z,20.70
2018-03-26T10:14:14.048Z,16.40
2018-03-26T10:15:14.062Z,15.80
2018-03-26T10:16:14.048Z,15.60
2018-03-26T10:17:14.032Z,19.20
2018-03-26T10:18:14.026Z,26.10
2018-03-26T10:19:14.019Z,25.20
2018-03-26T10:20:14.032Z,22.60
2018-03-26T10:21:14.213Z,18.20
2018-03-26T10:22:14.220Z,18.30
2018-03-26T10:23:14.002Z,18.70
2018-03-26T10:24:13.993Z,19.10
2018-03-26T10:25:14.007Z,22.10
2018-03-26T10:26:13.982Z,14.60
2018-03-26T10:27:14.182Z,19.10
2018-03-26T10:28:13.988Z,21.60
2018-03-26T10:29:13.970Z,21.80
2018-03-26T10:30:13.979Z,15.90
2018-03-26T10:31:13.982Z,18.20
2018-03-26T10:32:14.164Z,15.60
2018-03-26T10:33:13.944Z,12.80
2018-03-26T10:34:13.939Z,11.40
2018-03-26T10:35:13.945Z,14.90
2018-03-26T10:36:13.929Z,14.50
2018-03-26T10:37:13.934Z,13.50
2018-03-26T10:38:13.922Z,10.10
2018-03-26T10:39:13.910Z,8.30
2018-03-26T10:40:14.111Z,6.20
2018-03-26T10:41:13.904Z,8.20
2018-03-26T10:42:14.106Z,9.20
2018-03-26T10:43:13.892Z,7.60
2018-03-26T10:44:13.898Z,9.60
2018-03-26T10:45:14.088Z,7.30
2018-03-26T10:46:13.879Z,10.10
2018-03-26T10:47:13.870Z,8.30
2018-03-26T10:48:13.866Z,6.60
2018-03-26T10:49:13.860Z,7.60
2018-03-26T10:50:13.858Z,6.30
2018-03-26T10:51:14.063Z,7.70
2018-03-26T10:52:13.873Z,8.30
2018-03-26T10:53:13.849Z,8.30
2018-03-26T10:54:13.838Z,8.60
2018-03-26T10:55:13.833Z,8.80
2018-03-26T10:56:13.837Z,7.50
2018-03-26T10:57:13.817Z,4.90
2018-03-26T10:58:13.816Z,6.90
2018-03-26T10:59:13.808Z,9.90
2018-03-26T11:00:14.010Z,6.10
2018-03-26T11:01:14.011Z,6.80
2018-03-26T11:02:13.796Z,6.40
2018-03-26T11:03:13.798Z,8.20
2018-03-26T11:04:13.782Z,6.10
2018-03-26T11:05:13.990Z,5.70
2018-03-26T11:06:13.773Z,8.20
2018-03-26T11:07:13.787Z,5.00
2018-03-26T11:08:13.760Z,5.80
2018-03-26T11:09:13.759Z,6.70
2018-03-26T11:10:13.751Z,12.20
2018-03-26T11:11:13.756Z,11.30
2018-03-26T11:12:13.742Z,4.50
2018-03-26T11:13:13.957Z,6.90
2018-03-26T11:14:13.732Z,8.00
2018-03-26T11:15:13.728Z,12.40
2018-03-26T11:16:13.734Z,10.90
2018-03-26T11:17:13.746Z,7.80
2018-03-26T11:18:13.712Z,4.70
2018-03-26T11:19:13.704Z,4.10
2018-03-26T11:20:13.701Z,3.40
2018-03-26T11:21:13.697Z,3.90
2018-03-26T11:22:13.693Z,5.40
2018-03-26T11:23:13.687Z,4.30
2018-03-26T11:24:13.694Z,5.10
2018-03-26T11:25:13.881Z,6.70
2018-03-26T11:26:13.675Z,4.40
2018-03-26T11:27:13.679Z,8.30
2018-03-26T11:28:13.682Z,7.50
2018-03-26T11:29:13.678Z,4.70
2018-03-26T11:30:13.680Z,5.50
2018-03-26T11:31:13.649Z,5.90
2018-03-26T11:32:13.644Z,3.80
2018-03-26T11:33:13.655Z,6.00
2018-03-26T11:34:13.637Z,5.80
2018-03-26T11:35:13.834Z,3.90
2018-03-26T11:36:13.658Z,4.10
2018-03-26T11:37:13.621Z,6.10
2018-03-26T11:38:13.628Z,6.30
2018-03-26T11:39:13.613Z,5.30
2018-03-26T11:40:13.812Z,4.70
2018-03-26T11:41:13.624Z,3.80
2018-03-26T11:42:13.599Z,4.10
2018-03-26T11:43:13.604Z,3.90
2018-03-26T11:44:13.805Z,3.90
2018-03-26T11:45:13.803Z,3.70
2018-03-26T11:46:13.793Z,4.40
2018-03-26T11:47:13.577Z,5.20
2018-03-26T11:48:13.571Z,4.40
2018-03-26T11:49:13.564Z,2.90
2018-03-26T11:50:13.578Z,2.50
2018-03-26T11:51:13.762Z,2.10
2018-03-26T11:52:13.552Z,3.50
2018-03-26T11:53:13.548Z,3.90
2018-03-26T11:54:13.541Z,4.30
2018-03-26T11:55:13.539Z,4.50
2018-03-26T11:56:13.534Z,4.70
2018-03-26T11:57:13.540Z,4.40
2018-03-26T11:58:13.755Z,5.30
2018-03-26T11:59:13.518Z,5.90
2018-03-26T12:00:13.538Z,7.00
2018-03-26T12:01:13.731Z,5.20
2018-03-26T12:02:13.505Z,5.20
2018-03-26T12:03:13.729Z,5.70
2018-03-26T12:04:13.496Z,5.10
2018-03-26T12:05:13.491Z,6.10
2018-03-26T12:06:13.503Z,5.30
2018-03-26T12:07:13.481Z,5.10
2018-03-26T12:08:13.680Z,5.30
2018-03-26T12:09:13.687Z,5.60
2018-03-26T12:10:13.479Z,4.80
2018-03-26T12:11:13.473Z,6.20
2018-03-26T12:12:13.467Z,6.10
2018-03-26T12:13:13.468Z,6.40
2018-03-26T12:14:13.652Z,5.00
2018-03-26T12:15:13.456Z,4.40
2018-03-26T12:16:13.438Z,3.80
2018-03-26T12:17:13.433Z,5.20
2018-03-26T12:18:13.637Z,4.60
2018-03-26T12:19:13.629Z,4.30
2018-03-26T12:20:13.654Z,5.30
2018-03-26T12:21:13.426Z,5.00
2018-03-26T12:22:13.643Z,4.30
2018-03-26T12:23:13.404Z,4.40
2018-03-26T12:24:13.409Z,4.40
2018-03-26T12:25:13.399Z,5.30
2018-03-26T12:26:13.401Z,5.80
2018-03-26T12:27:13.396Z,5.60
2018-03-26T12:28:13.396Z,5.80
2018-03-26T12:29:13.389Z,5.20
2018-03-26T12:30:13.574Z,5.00
2018-03-26T12:31:13.394Z,5.00
2018-03-26T12:32:13.566Z,4.20
2018-03-26T12:33:13.367Z,5.60
2018-03-26T12:34:13.353Z,6.80
2018-03-26T12:35:13.349Z,5.10
2018-03-26T12:36:13.342Z,4.30
2018-03-26T12:37:13.340Z,5.80
2018-03-26T12:38:13.344Z,5.00
2018-03-26T12:39:13.541Z,5.20
2018-03-26T12:40:13.334Z,4.60
2018-03-26T12:41:13.317Z,5.00
2018-03-26T12:42:13.324Z,5.40
2018-03-26T12:43:13.309Z,5.00
2018-03-26T12:44:13.303Z,5.10
2018-03-26T12:45:13.322Z,5.10
2018-03-26T12:46:13.305Z,4.40
2018-03-26T12:47:13.503Z,2.50
2018-03-26T12:48:13.284Z,2.80
2018-03-26T12:49:13.298Z,3.00